Time;durP1;ratioP1;P1;durP2;ratioP2;P2;SDS_P1;SDS_P2;PMS_P1;PMS_P2;Temp;Humidity;BMP_temperature;BMP_pressure;BME280_temperature;BME280_humidity;BME280_pressure;Samples;Min_cycle;Max_cycle;Signal;HPM_P1;HPM_P2
2023/09/26 00:00:51;;;;;;;5.30;3.00;;;;;;;;;;5047630;28;20024;-69
2023/09/26 00:03:17;;;;;;;6.78;3.80;;;;;;;;;;5062111;28;20115;-68
2023/09/26 00:05:42;;;;;;;6.63;3.35;;;;;;;;;;5092366;28;20035;-68
2023/09/26 00:08:08;;;;;;;6.07;3.85;;;;;;;;;;5083546;28;20016;-68
2023/09/26 00:10:33;;;;;;;4.70;3.42;;;;;;;;;;5086490;28;20028;-67
2023/09/26 00:12:58;;;;;;;4.82;3.53;;;;;;;;;;5092010;28;20032;-68
2023/09/26 00:15:24;;;;;;;7.57;3.97;;;;;;;;;;5091253;28;20089;-68
2023/09/26 00:17:50;;;;;;;5.93;3.75;;;;;;;;;;5091153;28;20386;-69
2023/09/26 00:20:24;;;;;;;7.68;3.63;;;;;;;;;;5090388;28;20028;-68
2023/09/26 00:22:49;;;;;;;6.35;3.90;;;;;;;;;;5092244;28;20471;-69
2023/09/26 00:25:15;;;;;;;6.38;3.88;;;;;;;;;;5090478;28;20035;-69
2023/09/26 00:27:40;;;;;;;6.72;4.07;;;;;;;;;;5091021;28;20052;-69
2023/09/26 00:30:07;;;;;;;5.32;3.47;;;;;;;;;;5089754;28;20090;-69
2023/09/26 00:32:32;;;;;;;5.45;3.40;;;;;;;;;;5090522;28;20036;-68
2023/09/26 00:34:57;;;;;;;7.53;3.90;;;;;;;;;;5086718;28;20029;-69
2023/09/26 00:37:23;;;;;;;7.47;3.78;;;;;;;;;;5091249;28;20032;-68
2023/09/26 00:39:48;;;;;;;6.68;3.67;;;;;;;;;;5086868;28;20348;-68
2023/09/26 00:42:14;;;;;;;5.72;3.97;;;;;;;;;;5089826;28;20053;-68
2023/09/26 00:44:39;;;;;;;6.82;4.07;;;;;;;;;;5078036;28;20406;-69
2023/09/26 00:47:04;;;;;;;7.32;3.97;;;;;;;;;;5079196;28;20067;-69
2023/09/26 00:49:30;;;;;;;6.60;4.40;;;;;;;;;;5089701;28;20020;-68
2023/09/26 00:51:56;;;;;;;6.70;3.83;;;;;;;;;;5090395;28;20012;-69
2023/09/26 00:54:21;;;;;;;5.97;3.30;;;;;;;;;;5091306;28;20478;-68
2023/09/26 00:56:46;;;;;;;6.78;3.58;;;;;;;;;;5084730;28;20016;-68
2023/09/26 00:59:12;;;;;;;6.78;3.67;;;;;;;;;;5077729;28;20051;-68
2023/09/26 01:01:37;;;;;;;5.32;3.63;;;;;;;;;;5092011;28;20020;-69
2023/09/26 01:04:04;;;;;;;10.60;4.10;;;;;;;;;;5073306;28;20048;-68
2023/09/26 01:06:30;;;;;;;7.65;4.07;;;;;;;;;;5091499;28;20431;-68
2023/09/26 01:08:55;;;;;;;9.68;4.38;;;;;;;;;;5086100;28;20065;-68
2023/09/26 01:11:21;;;;;;;6.68;3.97;;;;;;;;;;5081192;28;20055;-68
2023/09/26 01:13:46;;;;;;;6.63;3.95;;;;;;;;;;5078626;28;20036;-68
2023/09/26 01:16:15;;;;;;;8.70;3.67;;;;;;;;;;5072908;28;20111;-68
2023/09/26 01:18:40;;;;;;;7.30;3.40;;;;;;;;;;5074445;28;20095;-68
2023/09/26 01:21:06;;;;;;;5.57;3.42;;;;;;;;;;5073006;28;20112;-68
2023/09/26 01:23:32;;;;;;;6.13;3.60;;;;;;;;;;5075195;28;20031;-69
2023/09/26 01:25:57;;;;;;;6.55;3.63;;;;;;;;;;5085240;28;20550;-68
2023/09/26 01:28:22;;;;;;;6.18;3.80;;;;;;;;;;5071500;28;20056;-70
2023/09/26 01:30:48;;;;;;;8.13;3.75;;;;;;;;;;5071526;28;20024;-69
2023/09/26 01:33:19;;;;;;;5.90;3.70;;;;;;;;;;5071715;28;20062;-69
2023/09/26 01:35:44;;;;;;;5.70;3.70;;;;;;;;;;5073652;28;20036;-67
2023/09/26 01:38:09;;;;;;;6.70;4.10;;;;;;;;;;5082587;28;20036;-68
2023/09/26 01:40:35;;;;;;;7.85;4.18;;;;;;;;;;5085248;28;20070;-68
2023/09/26 01:43:00;;;;;;;11.10;3.70;;;;;;;;;;5072028;28;20103;-68
2023/09/26 01:45:25;;;;;;;5.75;3.83;;;;;;;;;;5086583;28;20023;-68
2023/09/26 01:47:51;;;;;;;6.78;3.97;;;;;;;;;;5091183;28;20023;-68
2023/09/26 01:50:17;;;;;;;5.03;3.53;;;;;;;;;;5083189;28;20052;-68
2023/09/26 01:52:43;;;;;;;5.22;3.63;;;;;;;;;;5074430;28;20023;-68
2023/09/26 01:55:12;;;;;;;6.50;3.42;;;;;;;;;;5071489;28;20032;-68
2023/09/26 01:57:37;;;;;;;6.10;3.38;;;;;;;;;;5087931;28;20518;-69
2023/09/26 02:00:10;;;;;;;5.63;3.78;;;;;;;;;;5090711;28;20107;-69
2023/09/26 02:02:36;;;;;;;7.82;4.40;;;;;;;;;;5091121;28;20032;-69
2023/09/26 02:05:02;;;;;;;7.05;3.45;;;;;;;;;;5089476;28;20056;-68
2023/09/26 02:07:27;;;;;;;7.78;4.22;;;;;;;;;;5090560;28;20040;-68
2023/09/26 02:09:52;;;;;;;7.80;3.50;;;;;;;;;;5089903;28;20103;-68
2023/09/26 02:12:17;;;;;;;6.15;3.38;;;;;;;;;;5091100;28;20028;-69
2023/09/26 02:14:43;;;;;;;6.45;3.92;;;;;;;;;;5058171;28;20074;-69
2023/09/26 02:17:10;;;;;;;5.60;3.78;;;;;;;;;;5090139;28;20036;-68
2023/09/26 02:19:35;;;;;;;7.03;3.92;;;;;;;;;;5089399;28;20024;-69
2023/09/26 02:22:02;;;;;;;7.35;4.32;;;;;;;;;;5082146;28;20074;-69
2023/09/26 02:24:27;;;;;;;5.97;3.60;;;;;;;;;;5085986;28;20050;-69
2023/09/26 02:26:55;;;;;;;6.25;3.92;;;;;;;;;;5092732;28;20570;-69
2023/09/26 02:29:20;;;;;;;7.05;4.20;;;;;;;;;;5090882;28;20418;-68
2023/09/26 02:31:45;;;;;;;5.15;3.67;;;;;;;;;;5092728;28;20020;-68
2023/09/26 02:34:12;;;;;;;7.35;4.45;;;;;;;;;;5090768;28;20424;-69
2023/09/26 02:36:37;;;;;;;6.78;4.10;;;;;;;;;;5091605;28;20032;-70
2023/09/26 02:39:03;;;;;;;7.18;4.47;;;;;;;;;;5089405;28;20044;-69
2023/09/26 02:41:28;;;;;;;7.20;4.00;;;;;;;;;;5091629;28;20024;-69
2023/09/26 02:43:55;;;;;;;9.10;3.63;;;;;;;;;;5088017;28;20020;-69
2023/09/26 02:46:20;;;;;;;7.05;4.18;;;;;;;;;;5091584;28;20024;-69
2023/09/26 02:48:46;;;;;;;7.15;4.00;;;;;;;;;;5090061;28;20031;-69
2023/09/26 02:51:11;;;;;;;7.43;3.85;;;;;;;;;;5083133;28;20037;-69
2023/09/26 02:53:37;;;;;;;4.90;3.50;;;;;;;;;;5081676;28;20024;-69
2023/09/26 02:56:02;;;;;;;7.25;3.67;;;;;;;;;;5084947;28;20115;-69
2023/09/26 02:58:27;;;;;;;7.45;3.42;;;;;;;;;;5086162;28;20024;-69
2023/09/26 03:00:52;;;;;;;8.10;3.92;;;;;;;;;;5093965;28;20080;-69
2023/09/26 03:03:18;;;;;;;6.63;4.30;;;;;;;;;;5092611;28;20502;-69
2023/09/26 03:05:49;;;;;;;8.40;4.28;;;;;;;;;;5093635;28;20551;-69
2023/09/26 03:08:15;;;;;;;6.40;3.70;;;;;;;;;;5092766;28;20028;-69
2023/09/26 03:10:40;;;;;;;5.97;3.80;;;;;;;;;;5093291;28;20563;-69
2023/09/26 03:13:06;;;;;;;4.97;3.50;;;;;;;;;;5091561;28;20099;-69
2023/09/26 03:15:31;;;;;;;7.43;3.92;;;;;;;;;;5092052;28;20363;-69
2023/09/26 03:17:57;;;;;;;5.50;4.00;;;;;;;;;;5090252;28;20031;-69
2023/09/26 03:20:22;;;;;;;6.38;4.22;;;;;;;;;;5092247;28;20035;-69
2023/09/26 03:22:49;;;;;;;7.47;4.15;;;;;;;;;;5090859;28;20032;-68
2023/09/26 03:25:14;;;;;;;8.40;4.05;;;;;;;;;;5092372;28;20020;-69
2023/09/26 03:27:40;;;;;;;7.03;3.95;;;;;;;;;;5090879;28;20493;-68
2023/09/26 03:30:05;;;;;;;6.55;4.10;;;;;;;;;;5092762;28;20020;-70
2023/09/26 03:32:31;;;;;;;5.70;4.20;;;;;;;;;;5091316;28;20024;-69
2023/09/26 03:34:56;;;;;;;7.82;4.50;;;;;;;;;;5087237;28;20525;-68
2023/09/26 03:37:22;;;;;;;7.00;3.80;;;;;;;;;;5080009;28;20043;-69
2023/09/26 03:39:47;;;;;;;9.65;4.10;;;;;;;;;;5081178;28;20019;-68
2023/09/26 03:42:13;;;;;;;8.50;4.70;;;;;;;;;;5081874;28;20362;-69
2023/09/26 03:44:41;;;;;;;6.75;4.03;;;;;;;;;;5083223;28;20019;-68
2023/09/26 03:47:07;;;;;;;6.05;4.03;;;;;;;;;;5084238;28;20038;-69
2023/09/26 03:49:32;;;;;;;5.18;3.72;;;;;;;;;;5089756;28;20032;-69
2023/09/26 03:51:57;;;;;;;6.82;3.60;;;;;;;;;;5082450;28;20060;-69
2023/09/26 03:54:24;;;;;;;6.10;3.55;;;;;;;;;;5086028;28;20378;-69
2023/09/26 03:56:50;;;;;;;9.35;3.85;;;;;;;;;;5082196;28;20526;-69
2023/09/26 03:59:16;;;;;;;4.82;3.20;;;;;;;;;;5091287;28;20116;-69
2023/09/26 04:01:42;;;;;;;5.32;3.00;;;;;;;;;;5090959;28;20040;-69
2023/09/26 04:04:08;;;;;;;7.90;3.80;;;;;;;;;;5062556;28;20024;-69
2023/09/26 04:06:33;;;;;;;5.25;3.42;;;;;;;;;;5091828;28;20070;-69
2023/09/26 04:08:59;;;;;;;6.07;3.53;;;;;;;;;;5092869;28;20028;-69
2023/09/26 04:11:25;;;;;;;8.75;3.75;;;;;;;;;;5089656;28;20028;-68
2023/09/26 04:13:50;;;;;;;5.88;3.80;;;;;;;;;;5087683;28;20022;-68
2023/09/26 04:16:15;;;;;;;5.13;3.42;;;;;;;;;;5091536;28;20035;-69
2023/09/26 04:18:40;;;;;;;4.85;3.30;;;;;;;;;;5090863;28;20023;-68
2023/09/26 04:21:06;;;;;;;7.18;4.38;;;;;;;;;;5088840;28;20020;-69
2023/09/26 04:23:31;;;;;;;5.82;3.55;;;;;;;;;;5079018;28;20057;-67
2023/09/26 04:25:57;;;;;;;5.80;3.67;;;;;;;;;;5091777;28;20028;-67
2023/09/26 04:28:23;;;;;;;5.00;3.35;;;;;;;;;;5079544;28;20056;-68
2023/09/26 04:30:48;;;;;;;5.32;3.50;;;;;;;;;;5084553;28;20069;-68
2023/09/26 04:33:13;;;;;;;4.72;3.55;;;;;;;;;;5080595;28;20036;-68
2023/09/26 04:35:38;;;;;;;5.88;3.85;;;;;;;;;;5084715;28;20026;-68
2023/09/26 04:38:04;;;;;;;5.70;3.72;;;;;;;;;;5083417;28;20036;-69
2023/09/26 04:40:29;;;;;;;7.05;3.83;;;;;;;;;;5091670;28;20028;-68
2023/09/26 04:42:58;;;;;;;5.57;3.70;;;;;;;;;;5086736;28;20107;-69
2023/09/26 04:45:23;;;;;;;6.70;3.38;;;;;;;;;;5086437;28;20027;-69
2023/09/26 04:47:48;;;;;;;5.32;3.92;;;;;;;;;;5083084;28;20031;-70
2023/09/26 04:50:14;;;;;;;7.47;4.07;;;;;;;;;;5082302;28;20060;-68
2023/09/26 04:52:39;;;;;;;8.63;3.85;;;;;;;;;;5071722;28;20031;-70
2023/09/26 04:55:05;;;;;;;4.95;3.33;;;;;;;;;;5072594;28;20033;-70
2023/09/26 04:57:30;;;;;;;5.57;3.20;;;;;;;;;;5072143;28;20033;-68
2023/09/26 04:59:55;;;;;;;5.93;3.92;;;;;;;;;;5085440;28;20039;-69
2023/09/26 05:02:21;;;;;;;5.13;3.60;;;;;;;;;;5090799;28;20458;-69
2023/09/26 05:04:48;;;;;;;5.38;3.70;;;;;;;;;;5089916;28;20020;-69
2023/09/26 05:07:14;;;;;;;6.15;3.85;;;;;;;;;;5089863;28;20059;-68
2023/09/26 05:09:39;;;;;;;5.10;3.78;;;;;;;;;;5090821;28;20055;-68
2023/09/26 05:12:04;;;;;;;6.30;3.17;;;;;;;;;;5087302;28;20057;-68
2023/09/26 05:14:29;;;;;;;4.90;3.30;;;;;;;;;;5090765;28;20016;-69
2023/09/26 05:16:55;;;;;;;5.22;3.42;;;;;;;;;;5077058;28;20031;-69
2023/09/26 05:19:20;;;;;;;5.07;3.65;;;;;;;;;;5090209;28;20524;-69
2023/09/26 05:21:45;;;;;;;5.22;4.00;;;;;;;;;;5088438;28;20478;-69
2023/09/26 05:24:11;;;;;;;5.05;3.75;;;;;;;;;;5088941;28;20078;-69
2023/09/26 05:26:36;;;;;;;5.40;3.80;;;;;;;;;;5085972;28;20119;-69
2023/09/26 05:29:02;;;;;;;5.75;3.25;;;;;;;;;;5089360;28;20103;-69
2023/09/26 05:31:28;;;;;;;6.03;3.47;;;;;;;;;;5086623;28;20021;-70
2023/09/26 05:33:53;;;;;;;5.88;3.40;;;;;;;;;;5090206;28;20032;-69
2023/09/26 05:36:19;;;;;;;6.18;3.58;;;;;;;;;;5087618;28;20534;-69
2023/09/26 05:38:44;;;;;;;7.30;3.90;;;;;;;;;;5089115;28;20016;-69
2023/09/26 05:41:11;;;;;;;8.00;4.07;;;;;;;;;;5076802;28;20043;-69
2023/09/26 05:43:37;;;;;;;5.47;3.38;;;;;;;;;;5082329;28;20095;-69
2023/09/26 05:46:03;;;;;;;6.35;3.50;;;;;;;;;;5085079;28;20048;-69
2023/09/26 05:48:29;;;;;;;5.18;3.67;;;;;;;;;;5087234;28;20044;-69
2023/09/26 05:51:02;;;;;;;5.97;3.90;;;;;;;;;;5089853;28;20039;-69
2023/09/26 05:53:28;;;;;;;5.35;3.45;;;;;;;;;;5072030;28;20372;-69
2023/09/26 05:55:53;;;;;;;5.70;3.30;;;;;;;;;;5081601;28;20169;-68
2023/09/26 05:58:19;;;;;;;5.95;3.55;;;;;;;;;;5072657;28;20024;-69
2023/09/26 06:00:46;;;;;;;6.43;3.80;;;;;;;;;;5087809;28;20032;-69
2023/09/26 06:03:11;;;;;;;5.80;4.20;;;;;;;;;;5087889;28;20494;-69
2023/09/26 06:05:37;;;;;;;5.15;3.78;;;;;;;;;;5087775;28;20046;-69
2023/09/26 06:08:02;;;;;;;5.07;3.70;;;;;;;;;;5088452;28;20486;-69
2023/09/26 06:10:29;;;;;;;6.30;4.05;;;;;;;;;;5094554;28;20043;-69
2023/09/26 06:12:54;;;;;;;4.22;3.13;;;;;;;;;;5082593;28;20060;-69
2023/09/26 06:15:20;;;;;;;8.77;3.85;;;;;;;;;;5076517;28;20506;-69
2023/09/26 06:17:45;;;;;;;7.40;3.58;;;;;;;;;;5076942;28;20511;-69
2023/09/26 06:20:11;;;;;;;4.95;3.50;;;;;;;;;;5082366;28;20032;-68
2023/09/26 06:22:37;;;;;;;6.40;3.55;;;;;;;;;;5082572;28;20032;-68
2023/09/26 06:25:04;;;;;;;7.10;3.63;;;;;;;;;;5077478;28;20028;-70
2023/09/26 06:27:32;;;;;;;6.75;4.07;;;;;;;;;;5077091;28;20059;-69
2023/09/26 06:29:57;;;;;;;6.43;3.85;;;;;;;;;;5076476;28;20066;-69
2023/09/26 06:32:23;;;;;;;4.90;3.40;;;;;;;;;;5077098;28;20499;-70
2023/09/26 06:34:49;;;;;;;7.75;4.50;;;;;;;;;;5076238;28;20263;-69
2023/09/26 06:37:15;;;;;;;5.60;3.30;;;;;;;;;;5077245;28;20025;-68
2023/09/26 06:39:40;;;;;;;6.43;3.58;;;;;;;;;;5076301;28;20024;-69
2023/09/26 06:42:06;;;;;;;6.65;3.83;;;;;;;;;;5085371;28;20021;-69
2023/09/26 06:44:31;;;;;;;9.75;4.75;;;;;;;;;;5087071;28;20070;-69
2023/09/26 06:46:56;;;;;;;7.47;4.53;;;;;;;;;;5088806;28;20028;-69
2023/09/26 06:49:21;;;;;;;8.00;4.57;;;;;;;;;;5090569;28;20506;-69
2023/09/26 06:51:47;;;;;;;5.60;4.13;;;;;;;;;;5092248;28;20065;-69
2023/09/26 06:54:13;;;;;;;6.30;4.53;;;;;;;;;;5088693;28;20048;-69
2023/09/26 06:56:38;;;;;;;5.47;4.25;;;;;;;;;;5081904;28;20033;-69
2023/09/26 06:59:04;;;;;;;14.68;4.82;;;;;;;;;;5082227;28;20032;-69
2023/09/26 07:01:30;;;;;;;6.22;4.43;;;;;;;;;;5093370;28;20482;-69
2023/09/26 07:03:55;;;;;;;7.50;4.40;;;;;;;;;;5093026;28;20370;-69
2023/09/26 07:06:20;;;;;;;6.22;4.00;;;;;;;;;;5092916;28;20053;-69
2023/09/26 07:08:45;;;;;;;6.85;4.10;;;;;;;;;;5092425;28;20131;-69
2023/09/26 07:11:11;;;;;;;6.50;3.95;;;;;;;;;;5091692;28;20558;-69
2023/09/26 07:13:36;;;;;;;6.05;4.32;;;;;;;;;;5091733;28;20016;-69
2023/09/26 07:16:05;;;;;;;6.00;3.72;;;;;;;;;;5093241;28;20066;-69
2023/09/26 07:18:31;;;;;;;5.53;3.75;;;;;;;;;;5086932;28;20042;-69
2023/09/26 07:20:59;;;;;;;7.35;3.47;;;;;;;;;;5073876;28;20032;-69
2023/09/26 07:23:24;;;;;;;5.13;3.33;;;;;;;;;;5079987;28;20027;-69
2023/09/26 07:25:50;;;;;;;6.47;2.85;;;;;;;;;;5080639;28;20024;-68
2023/09/26 07:28:15;;;;;;;6.97;3.40;;;;;;;;;;5073056;28;20108;-67
2023/09/26 07:30:40;;;;;;;4.75;3.03;;;;;;;;;;5073526;28;20475;-68
2023/09/26 07:33:05;;;;;;;5.63;3.22;;;;;;;;;;5079078;28;20157;-68
2023/09/26 07:35:31;;;;;;;5.88;3.42;;;;;;;;;;5081502;28;20020;-68
2023/09/26 07:37:57;;;;;;;11.20;3.55;;;;;;;;;;5073704;28;20044;-69
2023/09/26 07:40:22;;;;;;;6.07;2.92;;;;;;;;;;5074622;28;20024;-68
2023/09/26 07:42:48;;;;;;;7.45;3.15;;;;;;;;;;5087352;28;20031;-69
2023/09/26 07:45:16;;;;;;;10.93;2.95;;;;;;;;;;5082432;28;20024;-69
2023/09/26 07:47:44;;;;;;;9.88;3.83;;;;;;;;;;5086722;28;20411;-69
2023/09/26 07:50:10;;;;;;;10.30;3.92;;;;;;;;;;5081300;28;20028;-69
2023/09/26 07:52:36;;;;;;;6.80;3.53;;;;;;;;;;5087120;28;20079;-68
2023/09/26 07:55:01;;;;;;;7.57;3.03;;;;;;;;;;5089350;28;20024;-68
2023/09/26 07:57:26;;;;;;;7.55;3.78;;;;;;;;;;5084622;28;20434;-68
2023/09/26 07:59:52;;;;;;;6.40;3.30;;;;;;;;;;5085987;28;20107;-68
2023/09/26 08:02:17;;;;;;;7.35;2.67;;;;;;;;;;5090755;28;20028;-68
2023/09/26 08:04:42;;;;;;;6.50;3.42;;;;;;;;;;5092214;28;20036;-68
2023/09/26 08:07:07;;;;;;;5.22;3.28;;;;;;;;;;5092058;28;20115;-69
2023/09/26 08:09:33;;;;;;;12.30;3.47;;;;;;;;;;5092202;28;20031;-69
2023/09/26 08:11:58;;;;;;;7.18;3.30;;;;;;;;;;5085689;28;20070;-69
2023/09/26 08:14:23;;;;;;;5.57;3.47;;;;;;;;;;5083324;28;20386;-70
2023/09/26 08:16:49;;;;;;;6.00;3.55;;;;;;;;;;5073820;28;20071;-69
2023/09/26 08:19:15;;;;;;;8.07;3.72;;;;;;;;;;5079040;28;20028;-69
2023/09/26 08:21:40;;;;;;;7.80;3.42;;;;;;;;;;5078550;28;20379;-69
2023/09/26 08:24:06;;;;;;;10.30;3.10;;;;;;;;;;5079370;28;20021;-69
2023/09/26 08:26:31;;;;;;;6.47;2.70;;;;;;;;;;5079122;28;20025;-69
2023/09/26 08:28:56;;;;;;;8.82;3.42;;;;;;;;;;5083379;28;20066;-69
2023/09/26 08:31:21;;;;;;;7.22;3.00;;;;;;;;;;5081150;28;20037;-70
2023/09/26 08:33:49;;;;;;;9.20;2.92;;;;;;;;;;5079074;28;20058;-69
2023/09/26 08:36:15;;;;;;;5.75;2.38;;;;;;;;;;5079980;28;20031;-70
2023/09/26 08:38:41;;;;;;;8.50;3.15;;;;;;;;;;5085182;28;20012;-69
2023/09/26 08:41:08;;;;;;;3.65;2.17;;;;;;;;;;5084094;28;20095;-70
2023/09/26 08:43:33;;;;;;;4.05;2.30;;;;;;;;;;5084383;28;20024;-69
2023/09/26 08:45:58;;;;;;;5.15;2.55;;;;;;;;;;5090521;28;20043;-69
2023/09/26 08:48:24;;;;;;;6.47;2.63;;;;;;;;;;5071549;28;20024;-69
2023/09/26 08:50:50;;;;;;;5.03;2.60;;;;;;;;;;5080652;28;20034;-69
2023/09/26 08:53:15;;;;;;;4.88;2.38;;;;;;;;;;5075826;28;20021;-69
2023/09/26 08:55:42;;;;;;;6.07;2.00;;;;;;;;;;5080475;28;20058;-69
2023/09/26 08:58:08;;;;;;;5.85;2.10;;;;;;;;;;5083332;28;20035;-69
2023/09/26 09:00:33;;;;;;;11.65;1.92;;;;;;;;;;5087200;28;20058;-69
2023/09/26 09:02:58;;;;;;;3.42;1.63;;;;;;;;;;5074144;28;20024;-69
2023/09/26 09:05:24;;;;;;;6.73;2.27;;;;;;;;;;5075785;28;20027;-68
2023/09/26 09:07:49;;;;;;;3.00;1.77;;;;;;;;;;5082848;28;20282;-69
2023/09/26 09:10:16;;;;;;;3.42;1.55;;;;;;;;;;5090270;28;20471;-68
2023/09/26 09:12:43;;;;;;;4.57;2.08;;;;;;;;;;5090394;28;20498;-69
2023/09/26 09:15:14;;;;;;;4.35;2.13;;;;;;;;;;5088832;28;20065;-70
2023/09/26 09:17:42;;;;;;;4.40;1.92;;;;;;;;;;5080448;28;20063;-69
2023/09/26 09:20:08;;;;;;;4.28;1.60;;;;;;;;;;5071391;28;20028;-68
2023/09/26 09:22:33;;;;;;;4.28;2.00;;;;;;;;;;5070860;28;20024;-69
2023/09/26 09:24:59;;;;;;;4.97;1.83;;;;;;;;;;5070829;28;20024;-69
2023/09/26 09:27:31;;;;;;;3.83;1.70;;;;;;;;;;5070734;28;20067;-69
2023/09/26 09:30:12;;;;;;;3.38;1.50;;;;;;;;;;5075338;28;20030;-69
2023/09/26 09:32:39;;;;;;;3.17;1.65;;;;;;;;;;5086700;28;20119;-68
2023/09/26 09:35:04;;;;;;;4.28;1.42;;;;;;;;;;5070642;28;20025;-69
2023/09/26 09:37:29;;;;;;;4.05;1.58;;;;;;;;;;5071284;28;20115;-69
2023/09/26 09:39:55;;;;;;;4.57;1.50;;;;;;;;;;5076785;28;20043;-68
2023/09/26 09:42:21;;;;;;;3.38;1.45;;;;;;;;;;5090379;28;20528;-69
2023/09/26 09:44:46;;;;;;;3.78;1.33;;;;;;;;;;5076490;28;20028;-69
2023/09/26 09:47:16;;;;;;;3.03;1.50;;;;;;;;;;5077890;28;20028;-68
2023/09/26 09:49:42;;;;;;;3.33;1.38;;;;;;;;;;5089176;28;20119;-68
2023/09/26 09:52:09;;;;;;;3.95;1.75;;;;;;;;;;5090926;28;20072;-69
2023/09/26 09:54:36;;;;;;;3.13;1.48;;;;;;;;;;5076440;28;20101;-69
2023/09/26 09:57:04;;;;;;;3.20;1.48;;;;;;;;;;5080020;28;20119;-68
2023/09/26 09:59:33;;;;;;;3.65;1.95;;;;;;;;;;5088024;28;20028;-68
2023/09/26 10:02:00;;;;;;;3.60;1.58;;;;;;;;;;5090227;28;20095;-68
2023/09/26 10:04:26;;;;;;;6.97;1.90;;;;;;;;;;5079595;28;20021;-70
2023/09/26 10:06:53;;;;;;;2.92;1.40;;;;;;;;;;5070773;28;20021;-68
2023/09/26 10:09:20;;;;;;;4.05;1.88;;;;;;;;;;5079585;28;20053;-68
2023/09/26 10:11:45;;;;;;;2.60;1.48;;;;;;;;;;5083721;28;20032;-68
2023/09/26 10:14:12;;;;;;;4.35;1.90;;;;;;;;;;5081628;28;20506;-68
2023/09/26 10:16:37;;;;;;;2.83;1.30;;;;;;;;;;5081720;28;20032;-69
2023/09/26 10:19:03;;;;;;;3.20;1.55;;;;;;;;;;5086282;28;20020;-69
2023/09/26 10:21:30;;;;;;;3.05;1.50;;;;;;;;;;5081291;28;20024;-69
2023/09/26 10:24:04;;;;;;;3.63;1.70;;;;;;;;;;5088152;28;20059;-69
2023/09/26 10:26:31;;;;;;;3.65;1.60;;;;;;;;;;5084892;28;20044;-69
2023/09/26 10:29:00;;;;;;;3.25;1.50;;;;;;;;;;5089556;28;20466;-68
2023/09/26 10:31:28;;;;;;;6.07;1.92;;;;;;;;;;5087367;28;20506;-69
2023/09/26 10:33:56;;;;;;;2.80;1.27;;;;;;;;;;5089085;28;20174;-68
2023/09/26 10:36:21;;;;;;;2.80;1.50;;;;;;;;;;5088446;28;20024;-69
2023/09/26 10:39:00;;;;;;;4.03;1.60;;;;;;;;;;5089096;28;20032;-69
2023/09/26 10:41:26;;;;;;;5.82;1.42;;;;;;;;;;5087435;28;20028;-69
2023/09/26 10:43:51;;;;;;;3.65;1.50;;;;;;;;;;5088502;28;20036;-69
2023/09/26 10:46:17;;;;;;;2.63;1.23;;;;;;;;;;5089774;28;20024;-68
2023/09/26 10:48:43;;;;;;;2.95;1.45;;;;;;;;;;5092534;28;20309;-68
2023/09/26 10:51:08;;;;;;;3.63;1.60;;;;;;;;;;5076984;28;20126;-68
2023/09/26 10:53:34;;;;;;;4.30;1.60;;;;;;;;;;5083532;28;20528;-69
2023/09/26 10:56:00;;;;;;;3.38;1.70;;;;;;;;;;5075930;28;20095;-68
2023/09/26 10:58:25;;;;;;;3.53;1.60;;;;;;;;;;5074629;28;20387;-68
2023/09/26 11:00:51;;;;;;;3.70;1.73;;;;;;;;;;5085689;28;20017;-68
2023/09/26 11:03:16;;;;;;;2.70;1.20;;;;;;;;;;5086901;28;20395;-68
2023/09/26 11:05:42;;;;;;;4.30;1.90;;;;;;;;;;5093211;28;20020;-68
2023/09/26 11:08:07;;;;;;;3.35;1.85;;;;;;;;;;5092529;28;20266;-68
2023/09/26 11:10:33;;;;;;;4.03;1.73;;;;;;;;;;5090910;28;20027;-67
2023/09/26 11:12:58;;;;;;;4.40;1.42;;;;;;;;;;5091148;28;20034;-67
2023/09/26 11:15:25;;;;;;;2.95;1.48;;;;;;;;;;5081440;28;20012;-67
2023/09/26 11:17:50;;;;;;;4.45;1.60;;;;;;;;;;5061968;28;20991;-67
2023/09/26 11:20:15;;;;;;;2.05;1.08;;;;;;;;;;5055021;28;20023;-68
2023/09/26 11:22:48;;;;;;;3.90;1.58;;;;;;;;;;5058268;28;20113;-68
2023/09/26 11:25:13;;;;;;;4.03;1.45;;;;;;;;;;5066715;28;20906;-68
2023/09/26 11:27:44;;;;;;;3.08;1.33;;;;;;;;;;5057095;28;20028;-68
2023/09/26 11:30:12;;;;;;;5.22;2.15;;;;;;;;;;5052130;28;20091;-68
2023/09/26 11:32:38;;;;;;;4.68;1.67;;;;;;;;;;5046328;28;20025;-68
2023/09/26 11:35:03;;;;;;;3.65;1.83;;;;;;;;;;5035987;28;20909;-68
2023/09/26 11:37:32;;;;;;;3.13;1.45;;;;;;;;;;5076909;28;20104;-68
2023/09/26 11:39:57;;;;;;;4.30;1.90;;;;;;;;;;5087936;28;20027;-68
2023/09/26 11:42:23;;;;;;;4.30;1.87;;;;;;;;;;5088387;28;20024;-68
2023/09/26 11:44:54;;;;;;;3.10;1.55;;;;;;;;;;5078774;28;20270;-68
2023/09/26 11:47:20;;;;;;;4.68;1.65;;;;;;;;;;5087622;28;20405;-69
2023/09/26 11:49:45;;;;;;;3.65;1.33;;;;;;;;;;5088390;28;20032;-68
2023/09/26 11:52:10;;;;;;;3.57;1.87;;;;;;;;;;5084417;28;20074;-68
2023/09/26 11:54:36;;;;;;;4.13;1.90;;;;;;;;;;5062218;28;20637;-68
2023/09/26 11:57:02;;;;;;;4.47;2.08;;;;;;;;;;5072543;28;20457;-68
2023/09/26 11:59:27;;;;;;;3.42;1.77;;;;;;;;;;5079629;28;20051;-68
2023/09/26 12:01:54;;;;;;;3.90;1.97;;;;;;;;;;5049742;28;20907;-68
2023/09/26 12:04:21;;;;;;;2.85;1.67;;;;;;;;;;5048708;28;20282;-68
2023/09/26 12:06:46;;;;;;;3.45;1.55;;;;;;;;;;5051677;28;20069;-66
2023/09/26 12:09:21;;;;;;;2.95;1.65;;;;;;;;;;5058708;28;20024;-66
2023/09/26 12:11:53;;;;;;;4.88;1.90;;;;;;;;;;5060637;28;20102;-66
2023/09/26 12:14:18;;;;;;;5.50;2.00;;;;;;;;;;5059021;28;20020;-66
2023/09/26 12:16:44;;;;;;;3.20;1.90;;;;;;;;;;5047768;28;20855;-66
2023/09/26 12:19:10;;;;;;;3.60;1.80;;;;;;;;;;5047969;28;20839;-67
2023/09/26 12:21:35;;;;;;;5.50;1.90;;;;;;;;;;5090600;28;20013;-66
2023/09/26 12:24:00;;;;;;;5.23;2.03;;;;;;;;;;5091752;28;20024;-67
2023/09/26 12:26:26;;;;;;;3.27;1.63;;;;;;;;;;5086852;28;20327;-66
2023/09/26 12:28:51;;;;;;;3.43;2.00;;;;;;;;;;5055745;28;20025;-67
2023/09/26 12:31:16;;;;;;;3.97;1.93;;;;;;;;;;5057594;28;20273;-66
2023/09/26 12:33:41;;;;;;;4.17;1.87;;;;;;;;;;5082328;28;20358;-66
2023/09/26 12:36:07;;;;;;;4.93;2.17;;;;;;;;;;5081823;28;20262;-66
2023/09/26 12:38:32;;;;;;;3.33;1.90;;;;;;;;;;5085631;28;20044;-66
2023/09/26 12:40:57;;;;;;;6.38;1.80;;;;;;;;;;5085982;28;20081;-67
2023/09/26 12:43:22;;;;;;;3.03;1.60;;;;;;;;;;5085385;28;20067;-66
2023/09/26 12:45:48;;;;;;;4.00;1.57;;;;;;;;;;5068830;28;20277;-66
2023/09/26 12:48:13;;;;;;;2.57;1.20;;;;;;;;;;5085330;28;20860;-66
2023/09/26 12:50:38;;;;;;;3.07;1.77;;;;;;;;;;5091167;28;20097;-66
2023/09/26 12:53:04;;;;;;;4.78;1.90;;;;;;;;;;5089691;28;20073;-66
2023/09/26 12:55:29;;;;;;;3.47;1.80;;;;;;;;;;5085397;28;20508;-66
2023/09/26 12:57:54;;;;;;;3.78;1.52;;;;;;;;;;5073696;28;20112;-66
2023/09/26 13:00:20;;;;;;;3.00;1.50;;;;;;;;;;5087979;28;20115;-66
2023/09/26 13:02:45;;;;;;;3.28;1.48;;;;;;;;;;5090405;28;20744;-66
2023/09/26 13:05:10;;;;;;;3.88;1.50;;;;;;;;;;5087829;28;20460;-66
2023/09/26 13:07:36;;;;;;;4.40;1.75;;;;;;;;;;5079767;28;20030;-66
2023/09/26 13:10:01;;;;;;;3.35;1.42;;;;;;;;;;5077275;28;20029;-66
2023/09/26 13:12:26;;;;;;;3.03;1.60;;;;;;;;;;5081725;28;20438;-66
2023/09/26 13:14:52;;;;;;;2.80;1.80;;;;;;;;;;5078290;28;20047;-66
2023/09/26 13:17:17;;;;;;;5.70;2.17;;;;;;;;;;5074580;28;20032;-66
2023/09/26 13:19:43;;;;;;;3.10;1.55;;;;;;;;;;5045103;28;20047;-66
2023/09/26 13:22:09;;;;;;;5.10;1.70;;;;;;;;;;5075566;28;20441;-65
2023/09/26 13:24:38;;;;;;;6.45;2.00;;;;;;;;;;5064317;28;20023;-66
2023/09/26 13:27:03;;;;;;;3.33;1.63;;;;;;;;;;5045757;28;20020;-66
2023/09/26 13:29:29;;;;;;;5.28;1.75;;;;;;;;;;5043793;28;20914;-66
2023/09/26 13:31:54;;;;;;;3.50;1.80;;;;;;;;;;5022299;28;20074;-66
2023/09/26 13:34:20;;;;;;;3.17;1.80;;;;;;;;;;5051248;28;20016;-67
2023/09/26 13:36:45;;;;;;;3.20;1.70;;;;;;;;;;5038775;28;20286;-66
2023/09/26 13:39:11;;;;;;;3.77;1.83;;;;;;;;;;5043347;28;20841;-66
2023/09/26 13:41:36;;;;;;;2.83;1.42;;;;;;;;;;5048784;28;20269;-66
2023/09/26 13:44:01;;;;;;;4.13;1.90;;;;;;;;;;5086007;28;20024;-66
2023/09/26 13:46:27;;;;;;;3.53;1.85;;;;;;;;;;5086230;28;20273;-65
2023/09/26 13:48:52;;;;;;;4.03;2.00;;;;;;;;;;5087338;28;20036;-67
2023/09/26 13:51:17;;;;;;;3.13;1.63;;;;;;;;;;5076492;28;20015;-67
2023/09/26 13:53:43;;;;;;;4.53;1.70;;;;;;;;;;5089684;28;20463;-68
2023/09/26 13:56:08;;;;;;;4.50;2.05;;;;;;;;;;5089633;28;20266;-67
2023/09/26 13:58:33;;;;;;;3.95;1.80;;;;;;;;;;5089912;28;20432;-67
2023/09/26 14:00:59;;;;;;;3.20;1.87;;;;;;;;;;5069233;28;20031;-67
2023/09/26 14:03:25;;;;;;;4.97;2.08;;;;;;;;;;5086605;28;20282;-67
2023/09/26 14:05:51;;;;;;;5.75;2.08;;;;;;;;;;5066149;28;20027;-67
2023/09/26 14:08:16;;;;;;;2.95;1.75;;;;;;;;;;5084916;28;20387;-67
2023/09/26 14:10:41;;;;;;;3.15;1.55;;;;;;;;;;5082137;28;20035;-67
2023/09/26 14:13:06;;;;;;;3.20;1.60;;;;;;;;;;5075702;28;20036;-67
2023/09/26 14:15:32;;;;;;;4.50;1.80;;;;;;;;;;5086179;28;20031;-67
2023/09/26 14:17:57;;;;;;;4.05;1.85;;;;;;;;;;5088275;28;20024;-67
2023/09/26 14:20:23;;;;;;;2.93;1.47;;;;;;;;;;5090415;28;20029;-67
2023/09/26 14:22:48;;;;;;;3.65;1.73;;;;;;;;;;5085517;28;20277;-67
2023/09/26 14:25:13;;;;;;;3.97;1.85;;;;;;;;;;5076189;28;20455;-67
2023/09/26 14:27:38;;;;;;;5.13;2.03;;;;;;;;;;5085872;28;20017;-67
2023/09/26 14:30:08;;;;;;;4.43;1.90;;;;;;;;;;5088954;28;20322;-67
2023/09/26 14:32:34;;;;;;;4.10;1.90;;;;;;;;;;5081294;28;20533;-67
2023/09/26 14:35:00;;;;;;;3.25;1.80;;;;;;;;;;5088586;28;20050;-67